THY889 LTAI-UZTT
Flight info
| Callsign | THY889 |
|---|---|
| Flight time | N/A |
| Altitude | 37000 |
| Route | TEWHE UR55 MUT/N0485F360 UA285 SELVI/N0487F370 UA285 SIV UA4 ERZ UB374 INDUR N161 EDATA M11 LUSAL N199 RASAM L88 METKA B476 DARVA/K0895F370 T898 OGOLI N193 DIBAD DIBAD2T |
| Aircraft | B77W/H-SDE1E2E3FGHIJ2J3J4J5M1RWXY/LB1D1 |
Departure
| Time | N/A |
|---|---|
| Airport | Antalya International Airport (LTAI) |
Arrival
| Time | 2026-05-06 16:37 |
|---|---|
| Airport | Tashkent International Airport (UZTT) |
| Time | Latitude | Longitude | Altitude | Speed | Heading |
|---|---|---|---|---|---|
| 2026-05-06 15:20 | 40.99951 | 55.95074 | 36928 ft | 532 kts | 93° |
| 2026-05-06 15:20 | 41.00097 | 56.04856 | 36935 ft | 534 kts | 93° |
| 2026-05-06 15:21 | 41.00234 | 56.14614 | 36956 ft | 535 kts | 93° |
| 2026-05-06 15:21 | 41.00365 | 56.24458 | 36962 ft | 535 kts | 92° |
| 2026-05-06 15:22 | 41.00487 | 56.34251 | 36948 ft | 535 kts | 92° |
| 2026-05-06 15:22 | 41.00602 | 56.44090 | 36923 ft | 534 kts | 92° |
| 2026-05-06 15:23 | 41.01037 | 56.53883 | 36911 ft | 538 kts | 84° |
| 2026-05-06 15:23 | 41.02200 | 56.63626 | 36917 ft | 539 kts | 83° |
| 2026-05-06 15:24 | 41.03371 | 56.73376 | 36921 ft | 538 kts | 84° |
| 2026-05-06 15:24 | 41.04531 | 56.83129 | 36925 ft | 539 kts | 84° |
| 2026-05-06 15:25 | 41.05606 | 56.92260 | 36913 ft | 538 kts | 84° |
| 2026-05-06 15:25 | 41.06763 | 57.02156 | 36886 ft | 538 kts | 84° |
| 2026-05-06 15:26 | 41.07888 | 57.11882 | 36879 ft | 538 kts | 84° |
| 2026-05-06 15:26 | 41.09011 | 57.21669 | 36868 ft | 537 kts | 84° |
| 2026-05-06 15:27 | 41.10122 | 57.31420 | 36860 ft | 537 kts | 84° |
| 2026-05-06 15:27 | 41.11226 | 57.41196 | 36851 ft | 537 kts | 84° |
| 2026-05-06 15:28 | 41.12331 | 57.51045 | 36850 ft | 537 kts | 84° |
| 2026-05-06 15:28 | 41.13416 | 57.60797 | 36851 ft | 537 kts | 84° |
| 2026-05-06 15:29 | 41.14493 | 57.70557 | 36841 ft | 536 kts | 84° |
| 2026-05-06 15:29 | 41.15566 | 57.80359 | 36838 ft | 536 kts | 84° |
| 2026-05-06 15:30 | 41.16625 | 57.90117 | 36837 ft | 536 kts | 84° |
| 2026-05-06 15:30 | 41.17677 | 57.99883 | 36836 ft | 536 kts | 84° |
| 2026-05-06 15:31 | 41.18724 | 58.09697 | 36836 ft | 536 kts | 84° |
| 2026-05-06 15:31 | 41.19757 | 58.19459 | 36835 ft | 535 kts | 84° |
| 2026-05-06 15:32 | 41.21301 | 58.34173 | 36833 ft | 535 kts | 84° |
| 2026-05-06 15:32 | 41.22316 | 58.43932 | 36833 ft | 535 kts | 84° |
| 2026-05-06 15:33 | 41.23320 | 58.53674 | 36826 ft | 535 kts | 84° |
| 2026-05-06 15:33 | 41.24319 | 58.63458 | 36818 ft | 534 kts | 84° |
| 2026-05-06 15:34 | 41.25303 | 58.73172 | 36807 ft | 533 kts | 85° |
| 2026-05-06 15:34 | 41.26284 | 58.82940 | 36807 ft | 533 kts | 85° |
| 2026-05-06 15:35 | 41.27216 | 58.92313 | 36809 ft | 533 kts | 85° |
| 2026-05-06 15:35 | 41.28130 | 59.01581 | 36809 ft | 533 kts | 85° |
| 2026-05-06 15:36 | 41.29084 | 59.11342 | 36811 ft | 532 kts | 85° |
| 2026-05-06 15:36 | 41.30024 | 59.21063 | 36813 ft | 532 kts | 85° |
| 2026-05-06 15:37 | 41.30960 | 59.30795 | 36815 ft | 531 kts | 85° |
| 2026-05-06 15:37 | 41.31884 | 59.40488 | 36817 ft | 531 kts | 85° |
| 2026-05-06 15:38 | 41.32803 | 59.50225 | 36818 ft | 530 kts | 85° |
| 2026-05-06 15:38 | 41.33708 | 59.59906 | 36819 ft | 530 kts | 85° |
| 2026-05-06 15:39 | 41.34162 | 59.69613 | 36811 ft | 525 kts | 96° |
| 2026-05-06 15:39 | 41.33748 | 59.79288 | 36810 ft | 524 kts | 97° |
| 2026-05-06 15:40 | 41.33301 | 59.88840 | 36810 ft | 524 kts | 97° |
| 2026-05-06 15:40 | 41.32832 | 59.98477 | 36818 ft | 524 kts | 97° |
| 2026-05-06 15:41 | 41.32365 | 60.08152 | 36820 ft | 524 kts | 97° |
| 2026-05-06 15:41 | 41.31905 | 60.17810 | 36823 ft | 523 kts | 97° |
| 2026-05-06 15:42 | 41.31438 | 60.27414 | 36827 ft | 523 kts | 97° |
| 2026-05-06 15:42 | 41.30960 | 60.37060 | 36828 ft | 522 kts | 97° |
| 2026-05-06 15:43 | 41.30869 | 60.46648 | 36831 ft | 525 kts | 88° |
| 2026-05-06 15:43 | 41.31305 | 60.54714 | 36831 ft | 525 kts | 87° |
| 2026-05-06 15:44 | 41.31916 | 60.66006 | 36833 ft | 525 kts | 88° |
| 2026-05-06 15:44 | 41.32420 | 60.75663 | 36828 ft | 524 kts | 88° |
| 2026-05-06 15:45 | 41.32915 | 60.85355 | 36831 ft | 524 kts | 88° |
| 2026-05-06 15:45 | 41.33398 | 60.94993 | 36834 ft | 524 kts | 88° |
| 2026-05-06 15:46 | 41.33873 | 61.04628 | 36835 ft | 524 kts | 88° |
| 2026-05-06 15:46 | 41.34344 | 61.14314 | 36838 ft | 523 kts | 88° |
| 2026-05-06 15:47 | 41.34802 | 61.23903 | 36841 ft | 524 kts | 88° |
| 2026-05-06 15:47 | 41.35257 | 61.33607 | 36843 ft | 524 kts | 88° |
| 2026-05-06 15:48 | 41.35701 | 61.43222 | 36843 ft | 523 kts | 88° |
| 2026-05-06 15:48 | 41.36142 | 61.52918 | 36844 ft | 523 kts | 88° |
| 2026-05-06 15:49 | 41.36576 | 61.62602 | 36849 ft | 523 kts | 88° |
| 2026-05-06 15:49 | 41.36998 | 61.72234 | 36844 ft | 522 kts | 89° |
| 2026-05-06 15:50 | 41.37411 | 61.81834 | 36846 ft | 522 kts | 89° |
| 2026-05-06 15:50 | 41.37816 | 61.91452 | 36845 ft | 522 kts | 89° |
| 2026-05-06 15:51 | 41.38219 | 62.01176 | 36843 ft | 522 kts | 89° |
| 2026-05-06 15:51 | 41.38607 | 62.10751 | 36846 ft | 522 kts | 89° |
| 2026-05-06 15:52 | 41.38988 | 62.20345 | 36848 ft | 522 kts | 89° |
| 2026-05-06 15:52 | 41.39362 | 62.29980 | 36846 ft | 520 kts | 89° |
| 2026-05-06 15:53 | 41.39727 | 62.39579 | 36847 ft | 520 kts | 89° |
| 2026-05-06 15:53 | 41.40085 | 62.49191 | 36849 ft | 519 kts | 89° |
| 2026-05-06 15:54 | 41.40454 | 62.58767 | 36852 ft | 519 kts | 88° |
| 2026-05-06 15:54 | 41.40828 | 62.68345 | 36848 ft | 518 kts | 89° |
| 2026-05-06 15:55 | 41.41194 | 62.77913 | 36853 ft | 518 kts | 89° |
| 2026-05-06 15:55 | 41.41552 | 62.87525 | 36859 ft | 518 kts | 89° |
| 2026-05-06 15:56 | 41.41901 | 62.97092 | 36853 ft | 517 kts | 89° |
| 2026-05-06 15:56 | 41.42240 | 63.06615 | 36844 ft | 516 kts | 89° |
| 2026-05-06 15:57 | 41.42572 | 63.16186 | 36846 ft | 516 kts | 89° |
| 2026-05-06 15:57 | 41.42894 | 63.25692 | 36850 ft | 515 kts | 89° |
| 2026-05-06 15:58 | 41.43209 | 63.35242 | 36856 ft | 515 kts | 89° |
| 2026-05-06 15:58 | 41.43516 | 63.44757 | 36864 ft | 514 kts | 89° |
| 2026-05-06 15:59 | 41.43814 | 63.54280 | 36872 ft | 513 kts | 89° |
| 2026-05-06 15:59 | 41.44105 | 63.63792 | 36877 ft | 513 kts | 89° |
| 2026-05-06 16:00 | 41.44379 | 63.73235 | 36874 ft | 512 kts | 89° |
| 2026-05-06 16:00 | 41.44637 | 63.82671 | 36878 ft | 512 kts | 89° |
| 2026-05-06 16:01 | 41.44888 | 63.92170 | 36883 ft | 512 kts | 89° |
| 2026-05-06 16:01 | 41.45132 | 64.01633 | 36888 ft | 512 kts | 89° |
| 2026-05-06 16:02 | 41.45367 | 64.11043 | 36902 ft | 511 kts | 89° |
| 2026-05-06 16:02 | 41.45595 | 64.20513 | 36924 ft | 511 kts | 89° |
| 2026-05-06 16:03 | 41.45814 | 64.29913 | 36941 ft | 510 kts | 89° |
| 2026-05-06 16:03 | 41.46025 | 64.39318 | 36949 ft | 509 kts | 89° |
| 2026-05-06 16:04 | 41.46230 | 64.48724 | 36948 ft | 509 kts | 89° |
| 2026-05-06 16:04 | 41.46426 | 64.58147 | 36962 ft | 509 kts | 89° |
| 2026-05-06 16:05 | 41.46614 | 64.67580 | 36953 ft | 509 kts | 90° |
| 2026-05-06 16:05 | 41.46796 | 64.76987 | 36943 ft | 508 kts | 90° |
| 2026-05-06 16:06 | 41.46969 | 64.86355 | 36933 ft | 507 kts | 90° |
| 2026-05-06 16:06 | 41.47134 | 64.95710 | 36923 ft | 506 kts | 89° |
| 2026-05-06 16:07 | 41.47290 | 65.05069 | 36916 ft | 506 kts | 89° |
| 2026-05-06 16:07 | 41.47440 | 65.14424 | 36921 ft | 505 kts | 89° |
| 2026-05-06 16:08 | 41.47581 | 65.23727 | 36925 ft | 505 kts | 89° |
| 2026-05-06 16:08 | 41.47716 | 65.33070 | 36929 ft | 504 kts | 89° |
| 2026-05-06 16:09 | 41.47842 | 65.42381 | 36939 ft | 503 kts | 89° |
| 2026-05-06 16:09 | 41.47960 | 65.51624 | 36949 ft | 502 kts | 89° |
| 2026-05-06 16:10 | 41.48071 | 65.60908 | 36951 ft | 502 kts | 89° |
| 2026-05-06 16:10 | 41.48176 | 65.70272 | 36947 ft | 502 kts | 90° |
| 2026-05-06 16:11 | 41.48271 | 65.79511 | 36954 ft | 501 kts | 90° |
| 2026-05-06 16:11 | 41.48307 | 65.88753 | 36963 ft | 501 kts | 90° |
| 2026-05-06 16:12 | 41.48326 | 65.98029 | 36965 ft | 500 kts | 90° |
| 2026-05-06 16:12 | 41.48339 | 66.07238 | 36969 ft | 499 kts | 90° |
| 2026-05-06 16:13 | 41.48346 | 66.16467 | 36973 ft | 498 kts | 90° |
| 2026-05-06 16:13 | 41.48345 | 66.25665 | 36970 ft | 498 kts | 90° |
| 2026-05-06 16:14 | 41.48338 | 66.34866 | 36970 ft | 498 kts | 90° |
| 2026-05-06 16:14 | 41.48323 | 66.44066 | 36972 ft | 498 kts | 90° |
| 2026-05-06 16:15 | 41.48302 | 66.53297 | 36974 ft | 498 kts | 90° |
| 2026-05-06 16:15 | 41.48007 | 66.62417 | 36972 ft | 497 kts | 99° |
| 2026-05-06 16:16 | 41.46747 | 66.71460 | 36952 ft | 496 kts | 102° |
| 2026-05-06 16:16 | 41.45434 | 66.80461 | 36933 ft | 496 kts | 102° |
| 2026-05-06 16:17 | 41.44113 | 66.89468 | 36945 ft | 496 kts | 102° |
| 2026-05-06 16:17 | 41.42784 | 66.98464 | 36666 ft | 490 kts | 101° |
| 2026-05-06 16:18 | 41.42123 | 67.02930 | 35897 ft | 496 kts | 101° |
| 2026-05-06 16:18 | 41.41462 | 67.07384 | 35014 ft | 505 kts | 101° |
| 2026-05-06 16:18 | 41.40777 | 67.11983 | 34070 ft | 513 kts | 101° |
| 2026-05-06 16:18 | 41.40076 | 67.16677 | 32917 ft | 518 kts | 101° |
| 2026-05-06 16:19 | 41.39373 | 67.21367 | 31802 ft | 520 kts | 101° |
| 2026-05-06 16:19 | 41.38674 | 67.26019 | 30787 ft | 519 kts | 101° |
| 2026-05-06 16:19 | 41.37967 | 67.30712 | 30034 ft | 512 kts | 101° |
| 2026-05-06 16:19 | 41.37273 | 67.35306 | 29426 ft | 502 kts | 101° |
| 2026-05-06 16:20 | 41.36592 | 67.39796 | 28817 ft | 492 kts | 101° |
| 2026-05-06 16:20 | 41.35922 | 67.44205 | 28209 ft | 482 kts | 101° |
| 2026-05-06 16:20 | 41.35268 | 67.48493 | 27610 ft | 473 kts | 101° |
| 2026-05-06 16:20 | 41.34621 | 67.52724 | 27150 ft | 464 kts | 101° |
| 2026-05-06 16:21 | 41.33978 | 67.56930 | 26622 ft | 459 kts | 101° |
| 2026-05-06 16:21 | 41.33344 | 67.61054 | 26042 ft | 456 kts | 101° |
| 2026-05-06 16:21 | 41.32716 | 67.65138 | 25432 ft | 453 kts | 102° |
| 2026-05-06 16:21 | 41.32086 | 67.69217 | 24764 ft | 450 kts | 102° |
| 2026-05-06 16:22 | 41.31452 | 67.73315 | 24097 ft | 447 kts | 102° |
| 2026-05-06 16:22 | 41.30836 | 67.77289 | 23465 ft | 443 kts | 102° |
| 2026-05-06 16:22 | 41.30217 | 67.81275 | 22839 ft | 438 kts | 102° |
| 2026-05-06 16:22 | 41.29606 | 67.85197 | 22226 ft | 434 kts | 102° |
| 2026-05-06 16:23 | 41.28993 | 67.89121 | 21598 ft | 431 kts | 102° |
| 2026-05-06 16:23 | 41.28437 | 67.92993 | 20975 ft | 427 kts | 97° |
| 2026-05-06 16:23 | 41.28252 | 67.96924 | 20351 ft | 424 kts | 92° |
| 2026-05-06 16:23 | 41.28190 | 68.00768 | 19858 ft | 417 kts | 91° |
| 2026-05-06 16:24 | 41.28130 | 68.04611 | 19137 ft | 418 kts | 91° |
| 2026-05-06 16:24 | 41.28068 | 68.08446 | 18448 ft | 417 kts | 91° |
| 2026-05-06 16:24 | 41.28004 | 68.12256 | 17800 ft | 415 kts | 91° |
| 2026-05-06 16:24 | 41.27938 | 68.16039 | 17179 ft | 412 kts | 91° |
| 2026-05-06 16:25 | 41.27870 | 68.19865 | 16499 ft | 408 kts | 91° |
| 2026-05-06 16:25 | 41.27802 | 68.23579 | 15932 ft | 403 kts | 90° |
| 2026-05-06 16:25 | 41.27735 | 68.27261 | 15326 ft | 400 kts | 90° |
| 2026-05-06 16:25 | 41.27666 | 68.30895 | 14980 ft | 389 kts | 90° |
| 2026-05-06 16:26 | 41.27597 | 68.34437 | 14537 ft | 383 kts | 90° |
| 2026-05-06 16:26 | 41.27527 | 68.37966 | 13675 ft | 389 kts | 91° |
| 2026-05-06 16:26 | 41.27455 | 68.41501 | 12889 ft | 376 kts | 91° |
| 2026-05-06 16:26 | 41.27387 | 68.44871 | 12365 ft | 360 kts | 91° |
| 2026-05-06 16:27 | 41.27319 | 68.48155 | 11847 ft | 345 kts | 91° |
| 2026-05-06 16:27 | 41.27254 | 68.51249 | 11344 ft | 334 kts | 91° |
| 2026-05-06 16:27 | 41.27190 | 68.54302 | 10837 ft | 323 kts | 91° |
| 2026-05-06 16:27 | 41.27128 | 68.57204 | 10357 ft | 314 kts | 91° |
| 2026-05-06 16:28 | 41.27066 | 68.60018 | 10228 ft | 300 kts | 91° |
| 2026-05-06 16:28 | 41.27005 | 68.62748 | 10202 ft | 290 kts | 91° |
| 2026-05-06 16:28 | 41.26947 | 68.65426 | 10191 ft | 288 kts | 92° |
| 2026-05-06 16:28 | 41.26887 | 68.68060 | 10122 ft | 288 kts | 92° |
| 2026-05-06 16:29 | 41.26826 | 68.70705 | 9825 ft | 287 kts | 92° |
| 2026-05-06 16:29 | 41.26763 | 68.73346 | 9426 ft | 284 kts | 92° |
| 2026-05-06 16:29 | 41.26701 | 68.75935 | 9002 ft | 281 kts | 92° |
| 2026-05-06 16:29 | 41.26642 | 68.78493 | 8507 ft | 278 kts | 92° |
| 2026-05-06 16:30 | 41.26587 | 68.81036 | 7988 ft | 270 kts | 92° |
| 2026-05-06 16:30 | 41.26551 | 68.82648 | 7663 ft | 264 kts | 92° |
| 2026-05-06 16:30 | 41.26468 | 68.85826 | 7003 ft | 253 kts | 91° |
| 2026-05-06 16:30 | 41.26205 | 68.88070 | 6511 ft | 242 kts | 109° |
| 2026-05-06 16:31 | 41.25589 | 68.90092 | 6121 ft | 234 kts | 114° |
| 2026-05-06 16:31 | 41.24920 | 68.92045 | 5665 ft | 229 kts | 114° |
| 2026-05-06 16:31 | 41.24270 | 68.93935 | 5291 ft | 221 kts | 115° |
| 2026-05-06 16:31 | 41.23626 | 68.95765 | 4919 ft | 217 kts | 114° |
| 2026-05-06 16:32 | 41.22988 | 68.97559 | 4563 ft | 213 kts | 113° |
| 2026-05-06 16:32 | 41.22598 | 68.99363 | 4293 ft | 197 kts | 95° |
| 2026-05-06 16:32 | 41.22637 | 69.01149 | 4077 ft | 190 kts | 84° |
| 2026-05-06 16:32 | 41.22815 | 69.02877 | 3853 ft | 186 kts | 81° |
| 2026-05-06 16:33 | 41.23011 | 69.04530 | 3610 ft | 175 kts | 81° |
| 2026-05-06 16:33 | 41.23195 | 69.06096 | 3388 ft | 170 kts | 81° |
| 2026-05-06 16:33 | 41.23371 | 69.07636 | 3160 ft | 168 kts | 81° |
| 2026-05-06 16:34 | 41.23709 | 69.10625 | 2984 ft | 158 kts | 81° |
| 2026-05-06 16:34 | 41.23871 | 69.12064 | 2983 ft | 155 kts | 81° |
| 2026-05-06 16:34 | 41.24028 | 69.13464 | 2981 ft | 153 kts | 80° |
| 2026-05-06 16:34 | 41.24183 | 69.14857 | 2981 ft | 153 kts | 81° |
| 2026-05-06 16:35 | 41.24339 | 69.16268 | 2932 ft | 156 kts | 81° |
| 2026-05-06 16:35 | 41.24500 | 69.17685 | 2705 ft | 154 kts | 81° |
| 2026-05-06 16:35 | 41.24657 | 69.19097 | 2478 ft | 154 kts | 81° |
| 2026-05-06 16:35 | 41.24809 | 69.20467 | 2280 ft | 151 kts | 81° |
| 2026-05-06 16:36 | 41.24966 | 69.21862 | 2072 ft | 151 kts | 81° |
| 2026-05-06 16:36 | 41.25115 | 69.23241 | 1847 ft | 148 kts | 82° |
| 2026-05-06 16:36 | 41.25260 | 69.24517 | 1665 ft | 146 kts | 81° |
| 2026-05-06 16:36 | 41.25402 | 69.25841 | 1480 ft | 146 kts | 82° |
| 2026-05-06 16:37 | 41.25542 | 69.27098 | 1428 ft | 120 kts | 82° |
| 2026-05-06 16:37 | 41.25637 | 69.27956 | 1428 ft | 67 kts | 82° |
| 2026-05-06 16:37 | 41.25680 | 69.28358 | 1428 ft | 30 kts | 82° |
| 2026-05-06 16:37 | 41.25706 | 69.28587 | 1428 ft | 24 kts | 81° |
| 2026-05-06 16:38 | 41.25730 | 69.28807 | 1428 ft | 24 kts | 79° |
| 2026-05-06 16:38 | 41.25845 | 69.28924 | 1428 ft | 20 kts | 19° |
| 2026-05-06 16:38 | 41.25924 | 69.28838 | 1428 ft | 18 kts | 267° |
| 2026-05-06 16:38 | 41.25896 | 69.28565 | 1428 ft | 42 kts | 263° |
| 2026-05-06 16:39 | 41.25852 | 69.28181 | 1428 ft | 40 kts | 259° |
| 2026-05-06 16:39 | 41.25814 | 69.27824 | 1428 ft | 37 kts | 262° |
| 2026-05-06 16:39 | 41.25795 | 69.27578 | 1428 ft | 23 kts | 282° |
| 2026-05-06 16:39 | 41.25841 | 69.27499 | 1428 ft | 16 kts | 319° |
| 2026-05-06 16:40 | 41.25932 | 69.27396 | 1428 ft | 1 kts | 318° |
| 2026-05-06 16:40 | 41.25949 | 69.27376 | 1428 ft | 7 kts | 318° |
| 2026-05-06 16:40 | 41.25982 | 69.27325 | 1428 ft | 7 kts | 288° |
| 2026-05-06 16:40 | 41.25985 | 69.27292 | 1428 ft | 1 kts | 270° |
| 2026-05-06 16:41 | 41.25984 | 69.27266 | 1428 ft | 2 kts | 265° |
| 2026-05-06 16:41 | 41.25982 | 69.27239 | 1428 ft | 2 kts | 263° |
| 2026-05-06 16:41 | 41.25980 | 69.27215 | 1428 ft | 1 kts | 263° |